sensor_id;sensor_type;location;lat;lon;timestamp;P1;durP1;ratioP1;P2;durP2;ratioP2
44048;SDS011;29717;47.028;15.470;2023-01-01T00:02:13;169.17;;;122.17;;
44048;SDS011;29717;47.028;15.470;2023-01-01T00:07:26;157.67;;;119.23;;
44048;SDS011;29717;47.028;15.470;2023-01-01T00:09:54;132.13;;;96.87;;
44048;SDS011;29717;47.028;15.470;2023-01-01T00:12:38;143.20;;;105.43;;
44048;SDS011;29717;47.028;15.470;2023-01-01T00:15:06;139.53;;;101.60;;
44048;SDS011;29717;47.028;15.470;2023-01-01T00:17:32;126.10;;;92.47;;
44048;SDS011;29717;47.028;15.470;2023-01-01T00:19:59;151.47;;;110.80;;
44048;SDS011;29717;47.028;15.470;2023-01-01T00:22:28;129.27;;;96.70;;
44048;SDS011;29717;47.028;15.470;2023-01-01T00:24:55;116.47;;;84.73;;
44048;SDS011;29717;47.028;15.470;2023-01-01T00:27:21;109.23;;;79.63;;
44048;SDS011;29717;47.028;15.470;2023-01-01T00:29:48;118.07;;;89.03;;
44048;SDS011;29717;47.028;15.470;2023-01-01T00:32:15;124.17;;;92.03;;
44048;SDS011;29717;47.028;15.470;2023-01-01T00:34:41;144.23;;;100.80;;
44048;SDS011;29717;47.028;15.470;2023-01-01T00:37:08;147.03;;;105.37;;
44048;SDS011;29717;47.028;15.470;2023-01-01T00:39:37;144.27;;;103.53;;
44048;SDS011;29717;47.028;15.470;2023-01-01T00:42:04;138.87;;;102.73;;
44048;SDS011;29717;47.028;15.470;2023-01-01T00:44:31;137.80;;;101.40;;
44048;SDS011;29717;47.028;15.470;2023-01-01T00:46:58;139.97;;;106.20;;
44048;SDS011;29717;47.028;15.470;2023-01-01T00:49:25;135.50;;;102.67;;
44048;SDS011;29717;47.028;15.470;2023-01-01T00:51:53;143.87;;;99.47;;
44048;SDS011;29717;47.028;15.470;2023-01-01T00:54:19;147.97;;;104.27;;
44048;SDS011;29717;47.028;15.470;2023-01-01T00:56:48;150.13;;;103.17;;
44048;SDS011;29717;47.028;15.470;2023-01-01T00:59:14;144.97;;;101.13;;
44048;SDS011;29717;47.028;15.470;2023-01-01T01:01:41;150.40;;;106.50;;
44048;SDS011;29717;47.028;15.470;2023-01-01T01:04:08;157.87;;;113.87;;
44048;SDS011;29717;47.028;15.470;2023-01-01T01:06:35;157.50;;;113.57;;
44048;SDS011;29717;47.028;15.470;2023-01-01T01:09:02;159.07;;;110.80;;
44048;SDS011;29717;47.028;15.470;2023-01-01T01:11:31;160.00;;;118.27;;
44048;SDS011;29717;47.028;15.470;2023-01-01T01:13:59;163.00;;;111.97;;
44048;SDS011;29717;47.028;15.470;2023-01-01T01:16:27;151.23;;;107.83;;
44048;SDS011;29717;47.028;15.470;2023-01-01T01:18:54;145.27;;;107.10;;
44048;SDS011;29717;47.028;15.470;2023-01-01T01:21:23;141.27;;;107.90;;
44048;SDS011;29717;47.028;15.470;2023-01-01T01:23:50;145.40;;;110.50;;
44048;SDS011;29717;47.028;15.470;2023-01-01T01:26:18;148.27;;;109.53;;
44048;SDS011;29717;47.028;15.470;2023-01-01T01:28:46;160.37;;;118.13;;
44048;SDS011;29717;47.028;15.470;2023-01-01T01:31:14;165.60;;;117.10;;
44048;SDS011;29717;47.028;15.470;2023-01-01T01:33:41;158.33;;;120.53;;
44048;SDS011;29717;47.028;15.470;2023-01-01T01:36:09;180.80;;;124.73;;
44048;SDS011;29717;47.028;15.470;2023-01-01T01:38:36;174.70;;;121.77;;
44048;SDS011;29717;47.028;15.470;2023-01-01T01:41:03;187.57;;;134.63;;
44048;SDS011;29717;47.028;15.470;2023-01-01T01:43:44;183.00;;;130.77;;
44048;SDS011;29717;47.028;15.470;2023-01-01T01:46:14;177.20;;;124.57;;
44048;SDS011;29717;47.028;15.470;2023-01-01T01:48:43;166.00;;;120.80;;
44048;SDS011;29717;47.028;15.470;2023-01-01T01:51:12;170.93;;;121.27;;
44048;SDS011;29717;47.028;15.470;2023-01-01T01:53:40;156.77;;;113.37;;
44048;SDS011;29717;47.028;15.470;2023-01-01T01:56:09;151.37;;;104.43;;
44048;SDS011;29717;47.028;15.470;2023-01-01T01:58:37;137.80;;;98.33;;
44048;SDS011;29717;47.028;15.470;2023-01-01T02:01:04;137.80;;;99.33;;
44048;SDS011;29717;47.028;15.470;2023-01-01T02:03:33;140.37;;;98.47;;
44048;SDS011;29717;47.028;15.470;2023-01-01T02:06:04;129.33;;;91.10;;
44048;SDS011;29717;47.028;15.470;2023-01-01T02:08:31;138.90;;;98.37;;
44048;SDS011;29717;47.028;15.470;2023-01-01T02:10:59;131.03;;;91.47;;
44048;SDS011;29717;47.028;15.470;2023-01-01T02:13:26;135.93;;;93.00;;
44048;SDS011;29717;47.028;15.470;2023-01-01T02:15:53;129.53;;;92.20;;
44048;SDS011;29717;47.028;15.470;2023-01-01T02:18:23;122.73;;;88.10;;
44048;SDS011;29717;47.028;15.470;2023-01-01T02:20:53;117.70;;;87.10;;
44048;SDS011;29717;47.028;15.470;2023-01-01T02:23:29;122.07;;;87.93;;
44048;SDS011;29717;47.028;15.470;2023-01-01T02:26:09;111.33;;;80.93;;
44048;SDS011;29717;47.028;15.470;2023-01-01T02:28:46;113.73;;;77.37;;
44048;SDS011;29717;47.028;15.470;2023-01-01T02:31:15;100.10;;;68.77;;
44048;SDS011;29717;47.028;15.470;2023-01-01T02:33:43;109.10;;;80.27;;
44048;SDS011;29717;47.028;15.470;2023-01-01T02:36:10;103.53;;;75.73;;
44048;SDS011;29717;47.028;15.470;2023-01-01T02:38:39;100.60;;;76.10;;
44048;SDS011;29717;47.028;15.470;2023-01-01T02:41:06;93.77;;;69.43;;
44048;SDS011;29717;47.028;15.470;2023-01-01T02:43:35;96.73;;;68.63;;
44048;SDS011;29717;47.028;15.470;2023-01-01T02:46:06;98.90;;;71.27;;
44048;SDS011;29717;47.028;15.470;2023-01-01T02:48:35;94.97;;;69.33;;
44048;SDS011;29717;47.028;15.470;2023-01-01T02:51:03;97.20;;;68.70;;
44048;SDS011;29717;47.028;15.470;2023-01-01T02:53:32;91.80;;;67.03;;
44048;SDS011;29717;47.028;15.470;2023-01-01T02:56:00;100.27;;;71.07;;
44048;SDS011;29717;47.028;15.470;2023-01-01T02:58:30;101.13;;;72.40;;
44048;SDS011;29717;47.028;15.470;2023-01-01T03:01:20;105.83;;;71.03;;
44048;SDS011;29717;47.028;15.470;2023-01-01T03:03:51;94.40;;;67.33;;
44048;SDS011;29717;47.028;15.470;2023-01-01T03:06:23;107.43;;;73.07;;
44048;SDS011;29717;47.028;15.470;2023-01-01T03:08:53;103.83;;;74.60;;
44048;SDS011;29717;47.028;15.470;2023-01-01T03:11:24;115.60;;;77.87;;
44048;SDS011;29717;47.028;15.470;2023-01-01T03:13:56;118.73;;;83.63;;
44048;SDS011;29717;47.028;15.470;2023-01-01T03:16:26;132.70;;;90.73;;
44048;SDS011;29717;47.028;15.470;2023-01-01T03:18:56;133.73;;;94.07;;
44048;SDS011;29717;47.028;15.470;2023-01-01T03:21:46;125.13;;;92.93;;
44048;SDS011;29717;47.028;15.470;2023-01-01T03:24:16;129.23;;;94.30;;
44048;SDS011;29717;47.028;15.470;2023-01-01T03:26:44;129.50;;;88.10;;
44048;SDS011;29717;47.028;15.470;2023-01-01T03:29:13;123.40;;;85.90;;
44048;SDS011;29717;47.028;15.470;2023-01-01T03:31:42;117.00;;;80.33;;
44048;SDS011;29717;47.028;15.470;2023-01-01T03:34:11;107.50;;;77.33;;
44048;SDS011;29717;47.028;15.470;2023-01-01T03:36:41;105.13;;;73.93;;
44048;SDS011;29717;47.028;15.470;2023-01-01T03:39:11;108.67;;;74.43;;
44048;SDS011;29717;47.028;15.470;2023-01-01T03:41:39;88.33;;;62.90;;
44048;SDS011;29717;47.028;15.470;2023-01-01T03:44:09;89.63;;;63.03;;
44048;SDS011;29717;47.028;15.470;2023-01-01T03:46:38;98.87;;;64.80;;
44048;SDS011;29717;47.028;15.470;2023-01-01T03:49:08;93.70;;;62.27;;
44048;SDS011;29717;47.028;15.470;2023-01-01T03:51:40;86.67;;;58.47;;
44048;SDS011;29717;47.028;15.470;2023-01-01T03:54:11;89.73;;;59.97;;
44048;SDS011;29717;47.028;15.470;2023-01-01T03:56:42;88.57;;;61.97;;
44048;SDS011;29717;47.028;15.470;2023-01-01T03:59:11;89.13;;;61.07;;
44048;SDS011;29717;47.028;15.470;2023-01-01T04:01:41;98.00;;;62.20;;
44048;SDS011;29717;47.028;15.470;2023-01-01T04:04:12;83.00;;;57.40;;
44048;SDS011;29717;47.028;15.470;2023-01-01T04:06:40;81.07;;;55.63;;
44048;SDS011;29717;47.028;15.470;2023-01-01T04:09:08;77.53;;;53.50;;
44048;SDS011;29717;47.028;15.470;2023-01-01T04:11:36;75.90;;;52.00;;
44048;SDS011;29717;47.028;15.470;2023-01-01T04:14:26;72.63;;;51.33;;
44048;SDS011;29717;47.028;15.470;2023-01-01T04:16:54;74.77;;;51.70;;
44048;SDS011;29717;47.028;15.470;2023-01-01T04:19:22;71.50;;;50.23;;
44048;SDS011;29717;47.028;15.470;2023-01-01T04:21:49;67.07;;;48.63;;
44048;SDS011;29717;47.028;15.470;2023-01-01T04:24:16;74.13;;;49.87;;
44048;SDS011;29717;47.028;15.470;2023-01-01T04:26:43;69.60;;;48.20;;
44048;SDS011;29717;47.028;15.470;2023-01-01T04:29:10;69.10;;;48.37;;
44048;SDS011;29717;47.028;15.470;2023-01-01T04:31:36;67.93;;;47.27;;
44048;SDS011;29717;47.028;15.470;2023-01-01T04:34:03;63.47;;;46.23;;
44048;SDS011;29717;47.028;15.470;2023-01-01T04:36:32;60.63;;;43.17;;
44048;SDS011;29717;47.028;15.470;2023-01-01T04:38:59;62.77;;;45.03;;
44048;SDS011;29717;47.028;15.470;2023-01-01T04:41:25;65.37;;;46.13;;
44048;SDS011;29717;47.028;15.470;2023-01-01T04:43:52;78.70;;;57.57;;
44048;SDS011;29717;47.028;15.470;2023-01-01T04:46:19;103.57;;;67.97;;
44048;SDS011;29717;47.028;15.470;2023-01-01T04:48:47;119.20;;;78.73;;
44048;SDS011;29717;47.028;15.470;2023-01-01T04:51:14;123.43;;;83.40;;
44048;SDS011;29717;47.028;15.470;2023-01-01T04:53:43;121.20;;;84.47;;
44048;SDS011;29717;47.028;15.470;2023-01-01T04:56:10;122.73;;;87.40;;
44048;SDS011;29717;47.028;15.470;2023-01-01T04:58:38;125.13;;;87.80;;
44048;SDS011;29717;47.028;15.470;2023-01-01T05:01:05;110.73;;;77.43;;
44048;SDS011;29717;47.028;15.470;2023-01-01T05:03:32;118.67;;;82.80;;
44048;SDS011;29717;47.028;15.470;2023-01-01T05:05:59;133.73;;;93.53;;
44048;SDS011;29717;47.028;15.470;2023-01-01T05:08:27;121.97;;;87.93;;
44048;SDS011;29717;47.028;15.470;2023-01-01T05:10:59;134.30;;;93.57;;
44048;SDS011;29717;47.028;15.470;2023-01-01T05:13:27;140.13;;;97.23;;
44048;SDS011;29717;47.028;15.470;2023-01-01T05:15:53;151.60;;;105.80;;
44048;SDS011;29717;47.028;15.470;2023-01-01T05:18:20;151.00;;;105.73;;
44048;SDS011;29717;47.028;15.470;2023-01-01T05:20:47;144.37;;;100.57;;
44048;SDS011;29717;47.028;15.470;2023-01-01T05:23:14;140.03;;;100.07;;
44048;SDS011;29717;47.028;15.470;2023-01-01T05:25:42;144.13;;;100.40;;
44048;SDS011;29717;47.028;15.470;2023-01-01T05:28:10;142.53;;;98.33;;
44048;SDS011;29717;47.028;15.470;2023-01-01T05:30:38;144.10;;;100.37;;
44048;SDS011;29717;47.028;15.470;2023-01-01T05:33:04;142.47;;;99.83;;
44048;SDS011;29717;47.028;15.470;2023-01-01T05:35:31;145.83;;;96.50;;
44048;SDS011;29717;47.028;15.470;2023-01-01T05:37:58;137.53;;;96.37;;
44048;SDS011;29717;47.028;15.470;2023-01-01T05:40:25;144.80;;;98.87;;
44048;SDS011;29717;47.028;15.470;2023-01-01T05:42:52;141.80;;;98.90;;
44048;SDS011;29717;47.028;15.470;2023-01-01T05:45:20;142.30;;;94.90;;
44048;SDS011;29717;47.028;15.470;2023-01-01T05:47:47;125.83;;;87.53;;
44048;SDS011;29717;47.028;15.470;2023-01-01T05:50:14;122.53;;;86.57;;
44048;SDS011;29717;47.028;15.470;2023-01-01T05:52:41;109.07;;;75.13;;
44048;SDS011;29717;47.028;15.470;2023-01-01T05:55:08;100.10;;;67.50;;
44048;SDS011;29717;47.028;15.470;2023-01-01T05:57:35;93.73;;;65.30;;
44048;SDS011;29717;47.028;15.470;2023-01-01T06:00:02;102.17;;;65.33;;
44048;SDS011;29717;47.028;15.470;2023-01-01T06:02:30;93.10;;;63.03;;
44048;SDS011;29717;47.028;15.470;2023-01-01T06:04:57;94.10;;;62.90;;
44048;SDS011;29717;47.028;15.470;2023-01-01T06:07:24;86.97;;;59.60;;
44048;SDS011;29717;47.028;15.470;2023-01-01T06:09:51;87.70;;;61.13;;
44048;SDS011;29717;47.028;15.470;2023-01-01T06:12:18;94.53;;;64.73;;
44048;SDS011;29717;47.028;15.470;2023-01-01T06:14:44;96.10;;;65.60;;
44048;SDS011;29717;47.028;15.470;2023-01-01T06:17:12;94.50;;;64.53;;
44048;SDS011;29717;47.028;15.470;2023-01-01T06:19:40;91.33;;;64.63;;
44048;SDS011;29717;47.028;15.470;2023-01-01T06:22:07;91.97;;;63.50;;
44048;SDS011;29717;47.028;15.470;2023-01-01T06:24:34;90.13;;;61.87;;
44048;SDS011;29717;47.028;15.470;2023-01-01T06:27:00;89.13;;;62.80;;
44048;SDS011;29717;47.028;15.470;2023-01-01T06:29:27;91.17;;;63.13;;
44048;SDS011;29717;47.028;15.470;2023-01-01T06:31:54;82.63;;;57.97;;
44048;SDS011;29717;47.028;15.470;2023-01-01T06:34:21;83.77;;;58.23;;
44048;SDS011;29717;47.028;15.470;2023-01-01T06:36:49;86.87;;;59.87;;
44048;SDS011;29717;47.028;15.470;2023-01-01T06:39:16;84.57;;;58.60;;
44048;SDS011;29717;47.028;15.470;2023-01-01T06:41:43;84.03;;;58.13;;
44048;SDS011;29717;47.028;15.470;2023-01-01T06:44:16;86.97;;;58.07;;
44048;SDS011;29717;47.028;15.470;2023-01-01T06:46:43;80.13;;;55.63;;
44048;SDS011;29717;47.028;15.470;2023-01-01T06:49:10;86.70;;;58.80;;
44048;SDS011;29717;47.028;15.470;2023-01-01T06:51:37;86.77;;;56.17;;
44048;SDS011;29717;47.028;15.470;2023-01-01T06:54:06;82.53;;;56.23;;
44048;SDS011;29717;47.028;15.470;2023-01-01T06:56:33;80.10;;;52.83;;
44048;SDS011;29717;47.028;15.470;2023-01-01T06:59:00;79.00;;;52.17;;
44048;SDS011;29717;47.028;15.470;2023-01-01T07:01:28;77.17;;;52.13;;
44048;SDS011;29717;47.028;15.470;2023-01-01T07:03:55;74.67;;;51.93;;
44048;SDS011;29717;47.028;15.470;2023-01-01T07:06:23;74.23;;;49.67;;
44048;SDS011;29717;47.028;15.470;2023-01-01T07:08:50;73.33;;;53.30;;
44048;SDS011;29717;47.028;15.470;2023-01-01T07:11:19;81.80;;;55.73;;
44048;SDS011;29717;47.028;15.470;2023-01-01T07:13:46;78.47;;;54.23;;
44048;SDS011;29717;47.028;15.470;2023-01-01T07:16:13;68.97;;;49.60;;
44048;SDS011;29717;47.028;15.470;2023-01-01T07:18:40;70.67;;;48.37;;
44048;SDS011;29717;47.028;15.470;2023-01-01T07:21:20;66.63;;;48.23;;
44048;SDS011;29717;47.028;15.470;2023-01-01T07:23:48;68.30;;;49.73;;
44048;SDS011;29717;47.028;15.470;2023-01-01T07:26:15;70.70;;;49.20;;
44048;SDS011;29717;47.028;15.470;2023-01-01T07:28:43;63.70;;;46.17;;
44048;SDS011;29717;47.028;15.470;2023-01-01T07:31:10;66.67;;;46.73;;
44048;SDS011;29717;47.028;15.470;2023-01-01T07:33:37;63.40;;;45.07;;
44048;SDS011;29717;47.028;15.470;2023-01-01T07:36:04;65.37;;;45.73;;
44048;SDS011;29717;47.028;15.470;2023-01-01T07:38:31;62.20;;;44.97;;
44048;SDS011;29717;47.028;15.470;2023-01-01T07:40:57;63.43;;;44.03;;
44048;SDS011;29717;47.028;15.470;2023-01-01T07:43:24;60.00;;;43.13;;
44048;SDS011;29717;47.028;15.470;2023-01-01T07:45:52;64.33;;;45.87;;
44048;SDS011;29717;47.028;15.470;2023-01-01T07:48:19;66.20;;;45.87;;
44048;SDS011;29717;47.028;15.470;2023-01-01T07:50:46;62.03;;;43.47;;
44048;SDS011;29717;47.028;15.470;2023-01-01T07:53:13;62.07;;;43.53;;
44048;SDS011;29717;47.028;15.470;2023-01-01T07:55:40;57.53;;;42.17;;
44048;SDS011;29717;47.028;15.470;2023-01-01T07:58:07;53.77;;;40.73;;
44048;SDS011;29717;47.028;15.470;2023-01-01T08:00:34;55.83;;;41.80;;
44048;SDS011;29717;47.028;15.470;2023-01-01T08:03:02;53.40;;;40.13;;
44048;SDS011;29717;47.028;15.470;2023-01-01T08:05:29;57.13;;;38.37;;
44048;SDS011;29717;47.028;15.470;2023-01-01T08:07:58;56.60;;;40.17;;
44048;SDS011;29717;47.028;15.470;2023-01-01T08:10:24;51.80;;;37.03;;
44048;SDS011;29717;47.028;15.470;2023-01-01T08:12:53;51.30;;;36.63;;
44048;SDS011;29717;47.028;15.470;2023-01-01T08:15:24;46.30;;;36.33;;
44048;SDS011;29717;47.028;15.470;2023-01-01T08:17:54;47.37;;;35.77;;
44048;SDS011;29717;47.028;15.470;2023-01-01T08:20:22;48.70;;;34.47;;
44048;SDS011;29717;47.028;15.470;2023-01-01T08:22:49;45.30;;;32.47;;
44048;SDS011;29717;47.028;15.470;2023-01-01T08:25:16;52.10;;;36.00;;
44048;SDS011;29717;47.028;15.470;2023-01-01T08:27:42;44.37;;;33.23;;
44048;SDS011;29717;47.028;15.470;2023-01-01T08:30:10;50.00;;;37.13;;
44048;SDS011;29717;47.028;15.470;2023-01-01T08:32:37;43.87;;;33.87;;
44048;SDS011;29717;47.028;15.470;2023-01-01T08:35:04;48.27;;;35.80;;
44048;SDS011;29717;47.028;15.470;2023-01-01T08:37:32;43.90;;;34.00;;
44048;SDS011;29717;47.028;15.470;2023-01-01T08:40:02;51.53;;;36.10;;
44048;SDS011;29717;47.028;15.470;2023-01-01T08:42:29;52.87;;;38.87;;
44048;SDS011;29717;47.028;15.470;2023-01-01T08:44:56;59.27;;;43.90;;
44048;SDS011;29717;47.028;15.470;2023-01-01T08:47:24;61.57;;;43.80;;
44048;SDS011;29717;47.028;15.470;2023-01-01T08:49:51;51.97;;;40.63;;
44048;SDS011;29717;47.028;15.470;2023-01-01T08:52:18;53.35;;;41.15;;
44048;SDS011;29717;47.028;15.470;2023-01-01T08:54:48;49.30;;;38.75;;
44048;SDS011;29717;47.028;15.470;2023-01-01T08:57:15;45.88;;;36.00;;
44048;SDS011;29717;47.028;15.470;2023-01-01T08:59:42;46.08;;;36.47;;
44048;SDS011;29717;47.028;15.470;2023-01-01T09:02:11;47.85;;;37.60;;
44048;SDS011;29717;47.028;15.470;2023-01-01T09:04:38;51.63;;;38.17;;
44048;SDS011;29717;47.028;15.470;2023-01-01T09:07:04;42.33;;;36.95;;
44048;SDS011;29717;47.028;15.470;2023-01-01T09:09:31;47.17;;;37.92;;
44048;SDS011;29717;47.028;15.470;2023-01-01T09:11:59;46.38;;;38.33;;
44048;SDS011;29717;47.028;15.470;2023-01-01T09:14:30;46.13;;;37.03;;
44048;SDS011;29717;47.028;15.470;2023-01-01T09:16:57;50.88;;;40.22;;
44048;SDS011;29717;47.028;15.470;2023-01-01T09:19:23;50.47;;;41.50;;
44048;SDS011;29717;47.028;15.470;2023-01-01T09:21:50;53.13;;;44.20;;
44048;SDS011;29717;47.028;15.470;2023-01-01T09:24:17;54.03;;;43.50;;
44048;SDS011;29717;47.028;15.470;2023-01-01T09:26:44;49.85;;;41.35;;
44048;SDS011;29717;47.028;15.470;2023-01-01T09:29:12;47.22;;;39.65;;
44048;SDS011;29717;47.028;15.470;2023-01-01T09:31:43;43.97;;;38.95;;
44048;SDS011;29717;47.028;15.470;2023-01-01T09:34:09;51.63;;;41.17;;
44048;SDS011;29717;47.028;15.470;2023-01-01T09:36:36;45.88;;;37.65;;
44048;SDS011;29717;47.028;15.470;2023-01-01T09:39:03;40.00;;;35.85;;
44048;SDS011;29717;47.028;15.470;2023-01-01T09:41:40;40.90;;;34.97;;
44048;SDS011;29717;47.028;15.470;2023-01-01T09:44:11;34.78;;;31.00;;
44048;SDS011;29717;47.028;15.470;2023-01-01T09:46:44;33.33;;;29.15;;
44048;SDS011;29717;47.028;15.470;2023-01-01T09:49:11;33.20;;;29.65;;
44048;SDS011;29717;47.028;15.470;2023-01-01T09:51:40;31.38;;;27.98;;
44048;SDS011;29717;47.028;15.470;2023-01-01T09:54:10;33.53;;;29.85;;
44048;SDS011;29717;47.028;15.470;2023-01-01T09:56:38;34.70;;;30.40;;
44048;SDS011;29717;47.028;15.470;2023-01-01T09:59:07;34.15;;;30.45;;
44048;SDS011;29717;47.028;15.470;2023-01-01T10:01:36;38.25;;;32.05;;
44048;SDS011;29717;47.028;15.470;2023-01-01T10:04:14;36.10;;;32.20;;
44048;SDS011;29717;47.028;15.470;2023-01-01T10:06:46;39.83;;;34.28;;
44048;SDS011;29717;47.028;15.470;2023-01-01T10:09:17;31.50;;;28.25;;
44048;SDS011;29717;47.028;15.470;2023-01-01T10:11:48;33.47;;;29.20;;
44048;SDS011;29717;47.028;15.470;2023-01-01T10:14:21;36.15;;;30.40;;
44048;SDS011;29717;47.028;15.470;2023-01-01T10:16:50;34.70;;;30.35;;
44048;SDS011;29717;47.028;15.470;2023-01-01T10:19:21;37.35;;;32.15;;
44048;SDS011;29717;47.028;15.470;2023-01-01T10:21:50;33.95;;;30.25;;
44048;SDS011;29717;47.028;15.470;2023-01-01T10:24:26;32.83;;;29.35;;
44048;SDS011;29717;47.028;15.470;2023-01-01T10:26:54;35.05;;;31.20;;
44048;SDS011;29717;47.028;15.470;2023-01-01T10:29:22;38.60;;;33.55;;
44048;SDS011;29717;47.028;15.470;2023-01-01T10:31:50;34.13;;;30.42;;
44048;SDS011;29717;47.028;15.470;2023-01-01T10:34:21;32.30;;;28.83;;
44048;SDS011;29717;47.028;15.470;2023-01-01T10:36:48;277.92;;;198.38;;
44048;SDS011;29717;47.028;15.470;2023-01-01T10:39:16;188.45;;;138.13;;
44048;SDS011;29717;47.028;15.470;2023-01-01T10:41:43;85.22;;;75.85;;
44048;SDS011;29717;47.028;15.470;2023-01-01T10:44:10;49.75;;;44.42;;
44048;SDS011;29717;47.028;15.470;2023-01-01T10:46:40;37.30;;;33.53;;
44048;SDS011;29717;47.028;15.470;2023-01-01T10:49:09;49.83;;;44.63;;
44048;SDS011;29717;47.028;15.470;2023-01-01T10:51:42;42.90;;;38.47;;
44048;SDS011;29717;47.028;15.470;2023-01-01T10:54:30;39.42;;;35.30;;
44048;SDS011;29717;47.028;15.470;2023-01-01T10:56:58;38.67;;;34.63;;
44048;SDS011;29717;47.028;15.470;2023-01-01T10:59:32;36.10;;;32.20;;
44048;SDS011;29717;47.028;15.470;2023-01-01T11:02:10;35.40;;;30.77;;
44048;SDS011;29717;47.028;15.470;2023-01-01T11:04:39;29.73;;;26.63;;
44048;SDS011;29717;47.028;15.470;2023-01-01T11:07:07;30.30;;;27.02;;
44048;SDS011;29717;47.028;15.470;2023-01-01T11:09:34;28.50;;;25.08;;
44048;SDS011;29717;47.028;15.470;2023-01-01T11:12:04;29.30;;;26.10;;
44048;SDS011;29717;47.028;15.470;2023-01-01T11:14:33;26.58;;;23.90;;
44048;SDS011;29717;47.028;15.470;2023-01-01T11:17:02;25.75;;;23.08;;
44048;SDS011;29717;47.028;15.470;2023-01-01T11:19:30;24.52;;;21.63;;
44048;SDS011;29717;47.028;15.470;2023-01-01T11:21:58;24.10;;;21.63;;
44048;SDS011;29717;47.028;15.470;2023-01-01T11:24:27;15.93;;;14.32;;
44048;SDS011;29717;47.028;15.470;2023-01-01T11:27:10;16.35;;;14.57;;
44048;SDS011;29717;47.028;15.470;2023-01-01T11:29:37;11.40;;;10.20;;
44048;SDS011;29717;47.028;15.470;2023-01-01T11:32:04;12.73;;;11.50;;
44048;SDS011;29717;47.028;15.470;2023-01-01T11:34:33;15.10;;;10.60;;
44048;SDS011;29717;47.028;15.470;2023-01-01T11:37:08;10.15;;;9.15;;
44048;SDS011;29717;47.028;15.470;2023-01-01T11:39:37;11.00;;;9.88;;
44048;SDS011;29717;47.028;15.470;2023-01-01T11:42:07;9.95;;;8.63;;
44048;SDS011;29717;47.028;15.470;2023-01-01T11:44:34;11.05;;;9.82;;
44048;SDS011;29717;47.028;15.470;2023-01-01T11:47:03;15.80;;;12.07;;
44048;SDS011;29717;47.028;15.470;2023-01-01T11:49:30;15.75;;;13.10;;
44048;SDS011;29717;47.028;15.470;2023-01-01T11:51:58;12.57;;;11.27;;
44048;SDS011;29717;47.028;15.470;2023-01-01T11:54:29;17.00;;;15.30;;
44048;SDS011;29717;47.028;15.470;2023-01-01T11:56:59;18.27;;;15.95;;
44048;SDS011;29717;47.028;15.470;2023-01-01T11:59:38;15.88;;;14.30;;
44048;SDS011;29717;47.028;15.470;2023-01-01T12:02:08;16.70;;;15.00;;
44048;SDS011;29717;47.028;15.470;2023-01-01T12:04:39;16.98;;;15.38;;
44048;SDS011;29717;47.028;15.470;2023-01-01T12:07:10;18.20;;;16.30;;
44048;SDS011;29717;47.028;15.470;2023-01-01T12:09:41;18.70;;;16.33;;
44048;SDS011;29717;47.028;15.470;2023-01-01T12:12:14;17.42;;;15.57;;
44048;SDS011;29717;47.028;15.470;2023-01-01T12:14:45;20.13;;;15.18;;
44048;SDS011;29717;47.028;15.470;2023-01-01T12:17:16;15.73;;;14.13;;
44048;SDS011;29717;47.028;15.470;2023-01-01T12:19:47;15.52;;;14.02;;
44048;SDS011;29717;47.028;15.470;2023-01-01T12:22:18;14.43;;;13.05;;
44048;SDS011;29717;47.028;15.470;2023-01-01T12:24:45;14.00;;;12.70;;
44048;SDS011;29717;47.028;15.470;2023-01-01T12:27:16;14.23;;;12.65;;
44048;SDS011;29717;47.028;15.470;2023-01-01T12:32:26;14.38;;;12.98;;
44048;SDS011;29717;47.028;15.470;2023-01-01T12:34:57;14.60;;;12.73;;
44048;SDS011;29717;47.028;15.470;2023-01-01T12:37:31;13.25;;;11.95;;
44048;SDS011;29717;47.028;15.470;2023-01-01T12:43:03;13.85;;;11.70;;
44048;SDS011;29717;47.028;15.470;2023-01-01T12:48:21;13.68;;;12.30;;
44048;SDS011;29717;47.028;15.470;2023-01-01T12:50:53;14.73;;;13.23;;
44048;SDS011;29717;47.028;15.470;2023-01-01T12:53:26;16.55;;;12.80;;
44048;SDS011;29717;47.028;15.470;2023-01-01T12:56:03;13.43;;;12.13;;
44048;SDS011;29717;47.028;15.470;2023-01-01T12:58:34;12.77;;;11.57;;
44048;SDS011;29717;47.028;15.470;2023-01-01T13:01:04;13.10;;;11.80;;
44048;SDS011;29717;47.028;15.470;2023-01-01T13:03:35;13.80;;;12.32;;
44048;SDS011;29717;47.028;15.470;2023-01-01T13:06:02;12.90;;;11.60;;
44048;SDS011;29717;47.028;15.470;2023-01-01T13:08:30;12.52;;;11.23;;
44048;SDS011;29717;47.028;15.470;2023-01-01T13:10:57;14.43;;;12.93;;
44048;SDS011;29717;47.028;15.470;2023-01-01T13:13:26;13.70;;;12.30;;
44048;SDS011;29717;47.028;15.470;2023-01-01T13:15:55;14.20;;;12.73;;
44048;SDS011;29717;47.028;15.470;2023-01-01T13:18:23;13.43;;;12.02;;
44048;SDS011;29717;47.028;15.470;2023-01-01T13:20:58;15.05;;;11.55;;
44048;SDS011;29717;47.028;15.470;2023-01-01T13:32:02;16.23;;;13.43;;
44048;SDS011;29717;47.028;15.470;2023-01-01T13:34:33;23.05;;;17.98;;
44048;SDS011;29717;47.028;15.470;2023-01-01T13:39:52;12.77;;;10.10;;
44048;SDS011;29717;47.028;15.470;2023-01-01T13:45:19;10.95;;;9.48;;
44048;SDS011;29717;47.028;15.470;2023-01-01T13:47:54;9.32;;;8.25;;
44048;SDS011;29717;47.028;15.470;2023-01-01T13:50:29;9.45;;;8.45;;
44048;SDS011;29717;47.028;15.470;2023-01-01T13:53:03;14.32;;;9.75;;
44048;SDS011;29717;47.028;15.470;2023-01-01T13:58:31;15.50;;;10.38;;
44048;SDS011;29717;47.028;15.470;2023-01-01T14:01:12;14.90;;;10.00;;
44048;SDS011;29717;47.028;15.470;2023-01-01T14:03:46;10.35;;;9.20;;
44048;SDS011;29717;47.028;15.470;2023-01-01T14:06:15;12.35;;;9.23;;
44048;SDS011;29717;47.028;15.470;2023-01-01T14:08:45;9.73;;;8.52;;
44048;SDS011;29717;47.028;15.470;2023-01-01T14:11:17;10.40;;;8.40;;
44048;SDS011;29717;47.028;15.470;2023-01-01T14:13:44;11.20;;;8.23;;
44048;SDS011;29717;47.028;15.470;2023-01-01T14:16:11;9.38;;;8.38;;
44048;SDS011;29717;47.028;15.470;2023-01-01T14:18:41;11.90;;;9.38;;
44048;SDS011;29717;47.028;15.470;2023-01-01T14:21:10;9.48;;;8.38;;
44048;SDS011;29717;47.028;15.470;2023-01-01T14:23:38;10.45;;;8.52;;
44048;SDS011;29717;47.028;15.470;2023-01-01T14:26:07;11.38;;;9.18;;
44048;SDS011;29717;47.028;15.470;2023-01-01T14:28:35;10.82;;;8.38;;
44048;SDS011;29717;47.028;15.470;2023-01-01T14:31:02;11.07;;;8.93;;
44048;SDS011;29717;47.028;15.470;2023-01-01T14:33:31;10.07;;;8.43;;
44048;SDS011;29717;47.028;15.470;2023-01-01T14:35:59;11.60;;;8.88;;
44048;SDS011;29717;47.028;15.470;2023-01-01T14:38:28;12.10;;;8.98;;
44048;SDS011;29717;47.028;15.470;2023-01-01T14:41:00;11.60;;;9.73;;
44048;SDS011;29717;47.028;15.470;2023-01-01T14:43:27;11.30;;;9.57;;